createdAt,value
2022-11-28T00:01:37.791Z,30.33
2022-11-28T00:04:09.695Z,27.13
2022-11-28T00:06:39.107Z,29.57
2022-11-28T00:09:09.255Z,32.70
2022-11-28T00:11:37.226Z,31.90
2022-11-28T00:14:05.495Z,28.07
2022-11-28T00:16:34.818Z,32.43
2022-11-28T00:19:03.612Z,23.70
2022-11-28T00:21:32.118Z,33.27
2022-11-28T00:24:00.793Z,29.53
2022-11-28T00:26:31.290Z,31.73
2022-11-28T00:29:00.187Z,32.60
2022-11-28T00:31:33.132Z,29.23
2022-11-28T00:34:03.002Z,31.63
2022-11-28T00:36:31.656Z,30.30
2022-11-28T00:38:59.489Z,31.13
2022-11-28T00:41:30.193Z,29.60
2022-11-28T00:43:58.845Z,30.80
2022-11-28T00:46:27.072Z,31.10
2022-11-28T00:48:54.937Z,37.13
2022-11-28T00:51:26.670Z,33.10
2022-11-28T00:53:56.264Z,31.73
2022-11-28T00:56:26.268Z,30.60
2022-11-28T00:58:54.522Z,29.80
2022-11-28T01:01:24.484Z,30.63
2022-11-28T01:03:54.158Z,28.57
2022-11-28T01:06:24.927Z,31.80
2022-11-28T01:08:53.187Z,27.63
2022-11-28T01:11:21.785Z,32.70
2022-11-28T01:13:49.814Z,34.40
2022-11-28T01:16:20.540Z,30.97
2022-11-28T01:18:48.449Z,31.97
2022-11-28T01:21:16.698Z,28.90
2022-11-28T01:23:46.068Z,31.03
2022-11-28T01:26:18.774Z,31.17
2022-11-28T01:28:47.106Z,36.07
2022-11-28T01:31:17.185Z,33.03
2022-11-28T01:33:45.722Z,33.10
2022-11-28T01:36:15.176Z,36.83
2022-11-28T01:38:45.037Z,31.90
2022-11-28T01:41:13.402Z,27.03
2022-11-28T01:44:07.708Z,32.50
2022-11-28T01:46:37.075Z,31.37
2022-11-28T01:49:16.605Z,40.97
2022-11-28T01:51:48.865Z,31.47
2022-11-28T01:54:21.562Z,27.00
2022-11-28T01:56:54.033Z,31.30
2022-11-28T01:59:27.515Z,27.30
2022-11-28T02:01:55.654Z,27.90
2022-11-28T02:04:26.927Z,31.00
2022-11-28T02:06:55.459Z,29.70
2022-11-28T02:09:24.664Z,27.57
2022-11-28T02:12:12.399Z,32.37
2022-11-28T02:15:07.740Z,27.60
2022-11-28T02:17:47.508Z,29.40
2022-11-28T02:20:36.954Z,32.30
2022-11-28T02:23:14.441Z,29.60
2022-11-28T02:26:06.566Z,31.23
2022-11-28T02:28:59.057Z,27.73
2022-11-28T02:31:43.925Z,32.27
2022-11-28T02:34:20.674Z,28.50
2022-11-28T02:36:54.021Z,27.60
2022-11-28T02:39:31.481Z,33.90
2022-11-28T02:42:08.216Z,31.07
2022-11-28T02:44:44.471Z,30.40
2022-11-28T02:47:19.882Z,34.87
2022-11-28T02:49:55.888Z,34.03
2022-11-28T02:52:28.936Z,33.70
2022-11-28T02:54:56.883Z,32.10
2022-11-28T02:57:30.187Z,33.27
2022-11-28T02:59:58.075Z,32.53
2022-11-28T03:02:29.046Z,34.20
2022-11-28T03:05:08.718Z,29.90
2022-11-28T03:08:01.804Z,28.33
2022-11-28T03:10:36.750Z,30.03
2022-11-28T03:13:11.198Z,34.40
2022-11-28T03:15:46.408Z,26.20
2022-11-28T03:18:21.386Z,27.33
2022-11-28T03:20:56.309Z,33.33
2022-11-28T03:23:31.523Z,27.50
2022-11-28T03:26:02.779Z,28.90
2022-11-28T03:28:38.169Z,30.47
2022-11-28T03:31:14.273Z,26.33
2022-11-28T03:33:46.548Z,29.33
2022-11-28T03:36:20.497Z,25.53
2022-11-28T03:38:51.675Z,26.50
2022-11-28T03:41:23.174Z,26.97
2022-11-28T03:43:54.679Z,24.57
2022-11-28T03:46:27.246Z,23.90
2022-11-28T03:48:59.614Z,32.50
2022-11-28T03:51:33.714Z,27.63
2022-11-28T03:54:09.351Z,27.90
2022-11-28T03:56:41.975Z,27.17
2022-11-28T03:59:14.441Z,33.77
2022-11-28T04:01:53.883Z,35.97
2022-11-28T04:04:29.270Z,31.50
2022-11-28T04:07:01.536Z,32.43
2022-11-28T04:09:42.335Z,30.10
2022-11-28T04:12:20.642Z,32.30
2022-11-28T04:14:53.949Z,33.83
2022-11-28T04:17:31.900Z,33.53
2022-11-28T04:20:07.036Z,29.03
2022-11-28T04:22:43.645Z,31.73
2022-11-28T04:25:15.134Z,29.70
2022-11-28T04:27:47.568Z,31.47
2022-11-28T04:30:15.944Z,28.23
2022-11-28T04:32:49.130Z,20.67
2022-11-28T04:35:22.832Z,27.73
2022-11-28T04:37:53.817Z,24.80
2022-11-28T04:40:24.853Z,26.90
2022-11-28T04:42:56.923Z,26.30
2022-11-28T04:45:30.019Z,27.97
2022-11-28T04:47:58.428Z,23.73
2022-11-28T04:50:32.137Z,26.13
2022-11-28T04:53:11.567Z,24.73
2022-11-28T04:55:44.810Z,27.20
2022-11-28T04:58:17.252Z,27.10
2022-11-28T05:00:46.652Z,26.50
2022-11-28T05:03:14.732Z,31.93
2022-11-28T05:05:45.652Z,27.73
2022-11-28T05:08:15.010Z,26.17
2022-11-28T05:10:43.139Z,27.67
2022-11-28T05:13:11.157Z,24.70
2022-11-28T05:15:39.205Z,28.00
2022-11-28T05:18:07.608Z,23.37
2022-11-28T05:20:35.906Z,27.30
2022-11-28T05:23:03.695Z,26.77
2022-11-28T05:25:32.999Z,24.63
2022-11-28T05:28:00.841Z,23.20
2022-11-28T05:30:28.650Z,24.90
2022-11-28T05:32:56.478Z,24.60
2022-11-28T05:35:24.374Z,24.33
2022-11-28T05:37:52.162Z,20.77
2022-11-28T05:40:20.221Z,21.10
2022-11-28T05:42:49.382Z,22.13
2022-11-28T05:45:17.268Z,22.70
2022-11-28T05:47:45.164Z,23.50
2022-11-28T05:50:13.160Z,22.40
2022-11-28T05:52:41.010Z,21.30
2022-11-28T05:55:09.736Z,26.43
2022-11-28T05:57:37.572Z,21.93
2022-11-28T06:00:08.308Z,24.93
2022-11-28T06:02:42.086Z,27.17
2022-11-28T06:05:34.673Z,24.40
2022-11-28T06:07:58.131Z,24.83
2022-11-28T06:10:26.069Z,21.83
2022-11-28T06:12:53.932Z,27.37
2022-11-28T06:15:23.146Z,24.33
2022-11-28T06:17:51.019Z,22.97
2022-11-28T06:20:19.054Z,23.57
2022-11-28T06:22:47.593Z,21.10
2022-11-28T06:25:15.470Z,22.80
2022-11-28T06:27:43.885Z,36.73
2022-11-28T06:30:12.039Z,22.80
2022-11-28T06:32:41.184Z,38.07
2022-11-28T06:35:09.467Z,24.50
2022-11-28T06:37:37.281Z,25.17
2022-11-28T06:40:06.151Z,22.17
2022-11-28T06:42:35.778Z,22.03
2022-11-28T06:45:04.584Z,21.03
2022-11-28T06:47:32.784Z,21.27
2022-11-28T06:50:02.126Z,21.67
2022-11-28T06:52:30.138Z,21.03
2022-11-28T06:54:58.010Z,19.47
2022-11-28T06:57:25.805Z,22.90
2022-11-28T06:59:53.670Z,20.80
2022-11-28T07:02:22.853Z,18.07
2022-11-28T07:04:50.803Z,16.70
2022-11-28T07:07:20.064Z,19.20
2022-11-28T07:09:48.053Z,24.43
2022-11-28T07:12:15.860Z,20.00
2022-11-28T07:14:43.656Z,19.67
2022-11-28T07:17:11.560Z,25.67
2022-11-28T07:19:39.631Z,21.63
2022-11-28T07:22:07.490Z,19.20
2022-11-28T07:24:36.688Z,20.53
2022-11-28T07:27:04.623Z,18.37
2022-11-28T07:29:36.469Z,17.70
2022-11-28T07:32:05.803Z,15.00
2022-11-28T07:34:33.685Z,15.30
2022-11-28T07:37:01.529Z,15.40
2022-11-28T07:39:29.406Z,14.80
2022-11-28T07:41:58.559Z,11.53
2022-11-28T07:44:26.347Z,14.97
2022-11-28T07:46:54.317Z,20.43
2022-11-28T07:49:22.242Z,14.00
2022-11-28T07:51:50.343Z,16.23
2022-11-28T07:54:18.216Z,15.03
2022-11-28T07:59:35.654Z,15.17
2022-11-28T08:02:03.734Z,15.53
2022-11-28T08:04:31.836Z,17.97
2022-11-28T08:06:59.745Z,17.73
2022-11-28T08:09:27.681Z,16.33
2022-11-28T08:11:55.639Z,17.30
2022-11-28T08:14:23.500Z,15.40
2022-11-28T08:16:52.802Z,16.03
2022-11-28T08:19:24.632Z,16.93
2022-11-28T08:21:52.880Z,18.57
2022-11-28T08:24:20.675Z,18.97
2022-11-28T08:26:48.469Z,20.83
2022-11-28T08:29:16.337Z,18.93
2022-11-28T08:31:44.192Z,20.27
2022-11-28T08:34:13.334Z,14.80
2022-11-28T08:36:43.348Z,20.23
2022-11-28T08:39:27.828Z,18.40
2022-11-28T08:41:58.914Z,17.87
2022-11-28T08:44:30.268Z,17.43
2022-11-28T08:46:58.552Z,21.90
2022-11-28T08:49:27.688Z,24.13
2022-11-28T08:51:55.566Z,19.37
2022-11-28T08:54:23.446Z,16.67
2022-11-28T08:56:51.335Z,17.33
2022-11-28T08:59:19.174Z,20.73
2022-11-28T09:01:47.080Z,20.23
2022-11-28T09:04:15.079Z,17.73
2022-11-28T09:06:44.328Z,19.70
2022-11-28T09:09:12.517Z,19.83
2022-11-28T09:11:40.593Z,19.00
2022-11-28T09:14:08.774Z,19.17
2022-11-28T09:16:36.635Z,17.10
2022-11-28T09:19:05.123Z,16.17
2022-11-28T09:21:33.201Z,15.20
2022-11-28T09:24:02.407Z,21.10
2022-11-28T09:26:30.947Z,19.07
2022-11-28T09:28:58.790Z,17.83
2022-11-28T09:31:26.645Z,17.97
2022-11-28T09:33:54.975Z,18.07
2022-11-28T09:36:24.780Z,15.53
2022-11-28T09:38:52.811Z,17.33
2022-11-28T09:41:34.719Z,15.43
2022-11-28T09:44:08.000Z,13.63
2022-11-28T09:46:38.304Z,14.57
2022-11-28T09:49:20.852Z,14.47
2022-11-28T09:51:53.977Z,16.83
2022-11-28T09:54:28.955Z,17.47
2022-11-28T09:56:59.964Z,13.20
2022-11-28T09:59:30.080Z,11.93
2022-11-28T10:02:05.770Z,14.60
2022-11-28T10:04:42.395Z,14.63
2022-11-28T10:07:20.605Z,11.83
2022-11-28T10:09:58.147Z,12.53
2022-11-28T10:12:44.503Z,15.83
2022-11-28T10:15:25.674Z,15.73
2022-11-28T10:18:08.150Z,14.30
2022-11-28T10:20:40.527Z,16.20
2022-11-28T10:23:15.863Z,18.63
2022-11-28T10:25:49.474Z,14.20
2022-11-28T10:28:23.192Z,17.30
2022-11-28T10:30:58.223Z,17.10
2022-11-28T10:33:30.998Z,19.70
2022-11-28T10:36:01.490Z,17.70
2022-11-28T10:38:34.110Z,16.10
2022-11-28T10:41:08.787Z,16.17
2022-11-28T10:43:45.070Z,16.67
2022-11-28T10:46:31.747Z,14.40
2022-11-28T10:49:09.076Z,16.50
2022-11-28T10:51:49.950Z,13.57
2022-11-28T10:54:26.582Z,13.60
2022-11-28T10:57:02.165Z,17.87
2022-11-28T10:59:42.637Z,17.70
2022-11-28T11:02:21.621Z,19.57
2022-11-28T11:04:49.546Z,16.00
2022-11-28T11:07:27.987Z,19.00
2022-11-28T11:09:59.462Z,19.13
2022-11-28T11:12:31.530Z,18.33
2022-11-28T11:15:15.321Z,17.03
2022-11-28T11:17:43.110Z,22.07
2022-11-28T11:20:38.139Z,17.70
2022-11-28T11:23:16.562Z,17.57
2022-11-28T11:25:55.562Z,19.40
2022-11-28T11:28:41.612Z,19.17
2022-11-28T11:31:20.695Z,19.43
2022-11-28T11:33:51.459Z,20.83
2022-11-28T11:36:28.776Z,20.13
2022-11-28T11:39:08.187Z,16.90
2022-11-28T11:41:36.042Z,20.77
2022-11-28T11:44:29.596Z,22.00
2022-11-28T11:47:01.815Z,25.30
2022-11-28T11:49:32.116Z,18.43
2022-11-28T11:52:02.106Z,21.60
2022-11-28T11:54:30.495Z,22.73
2022-11-28T11:57:30.582Z,22.07
2022-11-28T11:59:51.699Z,21.83
2022-11-28T12:02:26.522Z,22.03
2022-11-28T12:05:00.487Z,21.57
2022-11-28T12:07:34.339Z,19.30
2022-11-28T12:10:04.752Z,22.80
2022-11-28T12:12:37.320Z,24.63
2022-11-28T12:15:13.020Z,18.73
2022-11-28T12:17:58.577Z,20.40
2022-11-28T12:20:42.906Z,25.07
2022-11-28T12:23:30.628Z,21.03
2022-11-28T12:26:07.213Z,22.83
2022-11-28T12:28:48.728Z,23.17
2022-11-28T12:31:27.253Z,24.40
2022-11-28T12:34:07.571Z,22.23
2022-11-28T12:36:42.497Z,20.60
2022-11-28T12:39:18.819Z,24.60
2022-11-28T12:42:20.112Z,20.50
2022-11-28T12:44:59.869Z,20.03
2022-11-28T12:47:39.432Z,20.37
2022-11-28T12:50:21.618Z,18.40
2022-11-28T12:53:00.891Z,18.93
2022-11-28T12:55:36.410Z,20.17
2022-11-28T12:58:12.737Z,16.67
2022-11-28T13:00:51.102Z,17.37
2022-11-28T13:03:34.255Z,18.17
2022-11-28T13:06:16.131Z,18.70
2022-11-28T13:09:15.305Z,18.70
2022-11-28T13:11:58.071Z,19.43
2022-11-28T13:14:36.859Z,18.00
2022-11-28T13:17:17.341Z,19.03
2022-11-28T13:19:51.205Z,18.00
2022-11-28T13:22:25.189Z,16.80
2022-11-28T13:25:01.589Z,17.93
2022-11-28T13:27:38.528Z,20.83
2022-11-28T13:30:21.100Z,23.40
2022-11-28T13:32:55.217Z,19.57
2022-11-28T13:35:24.369Z,16.83
2022-11-28T13:40:52.904Z,14.47
2022-11-28T13:43:28.617Z,18.07
2022-11-28T13:45:57.191Z,20.00
2022-11-28T13:49:13.757Z,17.50
2022-11-28T13:51:42.992Z,19.47
2022-11-28T13:54:37.105Z,16.23
2022-11-28T13:57:15.360Z,18.50
2022-11-28T13:59:49.855Z,15.63
2022-11-28T14:02:23.988Z,17.27
2022-11-28T14:04:51.946Z,16.23
2022-11-28T14:07:30.729Z,15.80
2022-11-28T14:10:26.769Z,17.13
2022-11-28T14:13:22.956Z,18.70
2022-11-28T14:16:07.778Z,17.03
2022-11-28T14:18:58.437Z,18.20
2022-11-28T14:21:40.067Z,16.53
2022-11-28T14:24:17.282Z,15.30
2022-11-28T14:26:45.598Z,16.40
2022-11-28T14:29:24.131Z,17.87
2022-11-28T14:32:21.652Z,17.73
2022-11-28T14:34:45.521Z,18.40
2022-11-28T14:37:57.664Z,18.30
2022-11-28T14:41:06.123Z,20.67
2022-11-28T14:43:36.617Z,17.23
2022-11-28T14:46:33.888Z,19.20
2022-11-28T14:49:17.672Z,16.00
2022-11-28T14:54:57.907Z,18.40
2022-11-28T14:57:28.899Z,17.87
2022-11-28T14:59:59.678Z,24.23
2022-11-28T15:02:44.924Z,16.57
2022-11-28T15:05:34.588Z,17.57
2022-11-28T15:08:47.995Z,20.87
2022-11-28T15:11:24.052Z,19.50
2022-11-28T15:14:09.835Z,14.40
2022-11-28T15:16:48.250Z,17.53
2022-11-28T15:19:26.500Z,24.80
2022-11-28T15:21:56.198Z,26.50
2022-11-28T15:24:30.436Z,19.53
2022-11-28T15:27:17.286Z,17.30
2022-11-28T15:29:54.677Z,16.23
2022-11-28T15:32:23.642Z,19.43
2022-11-28T15:35:00.911Z,18.00
2022-11-28T15:37:32.056Z,16.83
2022-11-28T15:40:03.412Z,18.43
2022-11-28T15:42:33.903Z,17.37
2022-11-28T15:45:09.521Z,18.40
2022-11-28T15:47:38.916Z,17.40
2022-11-28T15:50:18.198Z,17.60
2022-11-28T15:52:54.686Z,19.97
2022-11-28T15:55:23.054Z,18.43
2022-11-28T15:57:51.050Z,20.73
2022-11-28T16:00:21.867Z,17.80
2022-11-28T16:02:50.258Z,16.00
2022-11-28T16:05:22.236Z,17.97
2022-11-28T16:07:51.959Z,19.30
2022-11-28T16:10:25.183Z,18.80
2022-11-28T16:13:01.758Z,17.33
2022-11-28T16:15:30.756Z,17.90
2022-11-28T16:17:58.797Z,20.77
2022-11-28T16:20:30.663Z,18.70
2022-11-28T16:23:02.541Z,16.53
2022-11-28T16:25:31.136Z,19.03
2022-11-28T16:27:59.933Z,17.97
2022-11-28T16:30:33.499Z,19.30
2022-11-28T16:33:01.983Z,15.67
2022-11-28T16:35:36.072Z,19.93
2022-11-28T16:38:15.231Z,19.23
2022-11-28T16:40:43.804Z,18.37
2022-11-28T16:43:21.294Z,21.40
2022-11-28T16:45:59.957Z,17.37
2022-11-28T16:48:30.100Z,16.57
2022-11-28T16:51:36.684Z,20.13
2022-11-28T16:54:32.389Z,18.43
2022-11-28T16:57:11.869Z,19.73
2022-11-28T16:59:39.984Z,24.87
2022-11-28T17:02:15.361Z,24.97
2022-11-28T17:04:43.259Z,19.80
2022-11-28T17:07:14.601Z,18.73
2022-11-28T17:09:42.928Z,19.20
2022-11-28T17:12:17.844Z,16.57
2022-11-28T17:14:45.720Z,18.07
2022-11-28T17:17:14.691Z,19.13
2022-11-28T17:19:42.911Z,18.17
2022-11-28T17:22:15.440Z,16.57
2022-11-28T17:24:43.682Z,18.30
2022-11-28T17:27:13.003Z,22.07
2022-11-28T17:29:41.080Z,17.50
2022-11-28T17:32:13.437Z,20.53
2022-11-28T17:34:42.545Z,17.77
2022-11-28T17:37:11.032Z,17.47
2022-11-28T17:40:00.273Z,23.57
2022-11-28T17:42:28.199Z,18.20
2022-11-28T17:44:56.171Z,21.67
2022-11-28T17:47:26.804Z,15.73
2022-11-28T17:49:55.493Z,15.37
2022-11-28T17:52:30.020Z,17.43
2022-11-28T17:55:07.086Z,16.17
2022-11-28T17:57:36.091Z,19.97
2022-11-28T18:00:06.562Z,18.80
2022-11-28T18:02:41.841Z,22.90
2022-11-28T18:05:10.726Z,21.50
2022-11-28T18:07:40.243Z,20.90
2022-11-28T18:10:13.486Z,20.30
2022-11-28T18:12:41.595Z,17.57
2022-11-28T18:15:11.158Z,17.80
2022-11-28T18:17:39.388Z,18.70
2022-11-28T18:20:09.410Z,20.03
2022-11-28T18:22:37.299Z,19.33
2022-11-28T18:25:07.927Z,16.53
2022-11-28T18:27:37.212Z,18.60
2022-11-28T18:30:06.018Z,17.40
2022-11-28T18:32:33.982Z,22.00
2022-11-28T18:35:01.914Z,18.70
2022-11-28T18:37:29.915Z,21.90
2022-11-28T18:39:58.321Z,18.27
2022-11-28T18:42:26.501Z,20.60
2022-11-28T18:44:55.982Z,25.90
2022-11-28T18:47:24.841Z,21.50
2022-11-28T18:49:53.445Z,18.47
2022-11-28T18:52:21.424Z,16.97
2022-11-28T18:54:49.254Z,18.60
2022-11-28T18:57:18.319Z,23.17
2022-11-28T18:59:52.885Z,17.87
2022-11-28T19:02:24.131Z,18.87
2022-11-28T19:04:52.745Z,16.20
2022-11-28T19:07:20.920Z,19.53
2022-11-28T19:09:48.812Z,16.40
2022-11-28T19:12:16.811Z,18.80
2022-11-28T19:14:44.766Z,16.30
2022-11-28T19:17:13.036Z,16.17
2022-11-28T19:19:44.275Z,19.27
2022-11-28T19:22:12.502Z,16.80
2022-11-28T19:24:40.369Z,22.27
2022-11-28T19:27:13.876Z,18.53
2022-11-28T19:29:43.115Z,16.80
2022-11-28T19:32:11.395Z,19.17
2022-11-28T19:34:39.526Z,17.87
2022-11-28T19:37:08.802Z,17.20
2022-11-28T19:39:36.928Z,17.10
2022-11-28T19:42:04.983Z,19.33
2022-11-28T19:44:33.099Z,16.60
2022-11-28T19:47:01.908Z,17.33
2022-11-28T19:49:29.944Z,15.00
2022-11-28T19:51:58.431Z,15.03
2022-11-28T19:54:28.226Z,16.10
2022-11-28T19:56:57.055Z,16.50
2022-11-28T19:59:25.110Z,20.80
2022-11-28T20:01:53.821Z,18.87
2022-11-28T20:04:23.056Z,17.00
2022-11-28T20:06:50.874Z,18.77
2022-11-28T20:09:18.938Z,19.20
2022-11-28T20:11:49.570Z,16.87
2022-11-28T20:14:19.192Z,18.30
2022-11-28T20:16:47.892Z,17.60
2022-11-28T20:19:17.807Z,16.53
2022-11-28T20:21:46.402Z,15.80
2022-11-28T20:24:16.103Z,19.23
2022-11-28T20:26:46.289Z,17.73
2022-11-28T20:29:17.558Z,16.40
2022-11-28T20:31:48.214Z,15.27
2022-11-28T20:34:18.433Z,16.00
2022-11-28T20:36:52.163Z,17.50
2022-11-28T20:39:20.075Z,14.37
2022-11-28T20:41:48.015Z,12.60
2022-11-28T20:44:17.688Z,16.23
2022-11-28T20:46:46.379Z,14.70
2022-11-28T20:49:15.675Z,14.57
2022-11-28T20:51:43.713Z,17.47
2022-11-28T20:54:13.419Z,16.90
2022-11-28T20:57:13.007Z,16.70
2022-11-28T20:59:32.578Z,14.93
2022-11-28T21:02:00.442Z,16.70
2022-11-28T21:04:28.356Z,16.50
2022-11-28T21:06:56.237Z,17.33
2022-11-28T21:09:24.041Z,13.90
2022-11-28T21:11:59.578Z,16.30
2022-11-28T21:14:28.669Z,15.33
2022-11-28T21:16:58.941Z,15.70
2022-11-28T21:19:27.207Z,17.40
2022-11-28T21:21:55.151Z,17.17
2022-11-28T21:24:23.066Z,16.80
2022-11-28T21:26:53.830Z,17.10
2022-11-28T21:29:25.424Z,22.03
2022-11-28T21:31:53.920Z,16.30
2022-11-28T21:34:23.283Z,15.07
2022-11-28T21:36:51.294Z,17.50
2022-11-28T21:39:21.911Z,15.70
2022-11-28T21:41:50.843Z,24.47
2022-11-28T21:44:18.849Z,42.33
2022-11-28T21:46:47.827Z,26.00
2022-11-28T21:49:15.942Z,17.70
2022-11-28T21:51:45.416Z,17.40
2022-11-28T21:54:13.909Z,17.57
2022-11-28T21:56:41.937Z,19.20
2022-11-28T21:59:09.986Z,20.80
2022-11-28T22:01:38.906Z,17.90
2022-11-28T22:04:07.218Z,14.90
2022-11-28T22:06:35.318Z,19.50
2022-11-28T22:09:09.495Z,33.77
2022-11-28T22:11:39.322Z,28.37
2022-11-28T22:14:07.314Z,19.50
2022-11-28T22:16:35.209Z,16.00
2022-11-28T22:19:04.160Z,17.67
2022-11-28T22:24:22.742Z,15.73
2022-11-28T22:26:51.076Z,18.10
2022-11-28T22:29:19.377Z,16.43
2022-11-28T22:31:47.758Z,16.47
2022-11-28T22:34:15.686Z,15.17
2022-11-28T22:36:44.128Z,18.37
2022-11-28T22:39:12.350Z,16.70
2022-11-28T22:41:41.703Z,19.40
2022-11-28T22:44:11.303Z,20.93
2022-11-28T22:46:39.564Z,16.83
2022-11-28T22:49:11.160Z,19.60
2022-11-28T22:51:40.317Z,16.10
2022-11-28T22:54:09.120Z,19.30
2022-11-28T22:56:37.398Z,15.13
2022-11-28T22:59:10.541Z,18.50
2022-11-28T23:01:38.755Z,14.10
2022-11-28T23:04:06.931Z,18.13
2022-11-28T23:06:36.428Z,20.27
2022-11-28T23:09:08.473Z,18.03
2022-11-28T23:11:38.752Z,15.20
2022-11-28T23:14:08.486Z,16.27
2022-11-28T23:16:38.908Z,16.80
2022-11-28T23:19:10.597Z,16.23
2022-11-28T23:21:40.752Z,18.57
2022-11-28T23:24:13.040Z,18.80
2022-11-28T23:26:40.954Z,16.67
2022-11-28T23:29:10.641Z,19.33
2022-11-28T23:31:40.644Z,14.10
2022-11-28T23:34:09.656Z,15.90
2022-11-28T23:36:42.712Z,17.00
2022-11-28T23:39:14.269Z,14.70
2022-11-28T23:41:42.609Z,17.53
2022-11-28T23:44:13.100Z,16.37
2022-11-28T23:46:42.113Z,15.80
2022-11-28T23:49:10.724Z,15.80
2022-11-28T23:51:39.993Z,14.50
2022-11-28T23:54:08.429Z,14.30
2022-11-28T23:56:37.879Z,14.53
2022-11-28T23:59:08.559Z,16.90
